CBY302 VTCN-VTCP

Flight info

Callsign CBY302
Flight time 0h 16m
Altitude 8000
Route PAE
Aircraft AT76/M-SDFGIRY/S

Departure

Time 2026-05-08 05:48
Airport Nan Airport (VTCN)

Arrival

Time 2026-05-08 06:04
Airport Phrae Airport (VTCP)
Time Latitude Longitude Altitude Speed Heading
2026-05-08 05:38 18.80451 100.78467 701 ft 0 kts 122°
2026-05-08 05:41 18.80449 100.78467 700 ft 0 kts 146°
2026-05-08 05:41 18.80436 100.78463 693 ft 3 kts 207°
2026-05-08 05:42 18.80433 100.78444 694 ft 2 kts 288°
2026-05-08 05:42 18.80442 100.78427 699 ft 2 kts 319°
2026-05-08 05:42 18.80511 100.78433 700 ft 14 kts 17°
2026-05-08 05:42 18.80595 100.78482 695 ft 13 kts 30°
2026-05-08 05:43 18.80673 100.78529 698 ft 13 kts 30°
2026-05-08 05:43 18.80752 100.78578 697 ft 13 kts 30°
2026-05-08 05:43 18.80829 100.78626 696 ft 12 kts 31°
2026-05-08 05:43 18.80897 100.78660 694 ft 9 kts
2026-05-08 05:44 18.80950 100.78648 694 ft 7 kts 346°
2026-05-08 05:44 18.80998 100.78635 695 ft 7 kts 345°
2026-05-08 05:44 18.81048 100.78621 700 ft 7 kts 343°
2026-05-08 05:44 18.81104 100.78628 696 ft 10 kts 19°
2026-05-08 05:45 18.81191 100.78663 700 ft 16 kts 20°
2026-05-08 05:45 18.81304 100.78707 699 ft 18 kts 21°
2026-05-08 05:45 18.81430 100.78756 704 ft 22 kts 19°
2026-05-08 05:45 18.81569 100.78804 703 ft 18 kts 348°
2026-05-08 05:46 18.81595 100.78766 705 ft 6 kts 288°
2026-05-08 05:46 18.81612 100.78720 708 ft 7 kts 288°
2026-05-08 05:46 18.81613 100.78672 700 ft 6 kts 236°
2026-05-08 05:46 18.81585 100.78656 708 ft 4 kts 204°
2026-05-08 05:47 18.81501 100.78621 706 ft 34 kts 201°
2026-05-08 05:47 18.81117 100.78468 701 ft 85 kts 199°
2026-05-08 05:47 18.80401 100.78187 698 ft 131 kts 200°
2026-05-08 05:47 18.79494 100.77850 1009 ft 144 kts 199°
2026-05-08 05:48 18.78465 100.77514 1324 ft 164 kts 197°
2026-05-08 05:48 18.77331 100.77143 1691 ft 180 kts 199°
2026-05-08 05:48 18.76138 100.76733 2242 ft 179 kts 199°
2026-05-08 05:48 18.74976 100.76316 2574 ft 174 kts 199°
2026-05-08 05:49 18.73870 100.75831 2804 ft 173 kts 217°
2026-05-08 05:49 18.73096 100.74861 3015 ft 174 kts 232°
2026-05-08 05:49 18.72331 100.73865 3254 ft 175 kts 229°
2026-05-08 05:49 18.71514 100.72910 3467 ft 175 kts 226°
2026-05-08 05:50 18.70663 100.71984 3683 ft 177 kts 224°
2026-05-08 05:50 18.69784 100.71075 3898 ft 178 kts 223°
2026-05-08 05:50 18.68887 100.70175 4163 ft 178 kts 222°
2026-05-08 05:50 18.67974 100.69278 4398 ft 179 kts 221°
2026-05-08 05:51 18.67060 100.68379 4600 ft 180 kts 221°
2026-05-08 05:51 18.66150 100.67465 4832 ft 181 kts 221°
2026-05-08 05:51 18.65241 100.66545 5047 ft 182 kts 222°
2026-05-08 05:51 18.64327 100.65617 5240 ft 183 kts 222°
2026-05-08 05:52 18.63422 100.64702 5441 ft 184 kts 223°
2026-05-08 05:52 18.62501 100.63768 5645 ft 184 kts 223°
2026-05-08 05:52 18.61575 100.62832 5932 ft 184 kts 222°
2026-05-08 05:52 18.60645 100.61892 6275 ft 186 kts 222°
2026-05-08 05:53 18.59712 100.60944 6601 ft 187 kts 222°
2026-05-08 05:53 18.58772 100.59990 6935 ft 187 kts 222°
2026-05-08 05:53 18.57829 100.59035 7266 ft 188 kts 223°
2026-05-08 05:53 18.56880 100.58073 7605 ft 189 kts 222°
2026-05-08 05:54 18.55943 100.57126 7888 ft 191 kts 222°
2026-05-08 05:54 18.54950 100.56119 7964 ft 205 kts 222°
2026-05-08 05:54 18.53877 100.55031 7991 ft 222 kts 222°
2026-05-08 05:54 18.52727 100.53870 7982 ft 235 kts 223°
2026-05-08 05:55 18.51524 100.52653 7982 ft 244 kts 223°
2026-05-08 05:55 18.50274 100.51390 7978 ft 251 kts 223°
2026-05-08 05:55 18.49014 100.50116 7979 ft 257 kts 223°
2026-05-08 05:55 18.47712 100.48800 7970 ft 261 kts 223°
2026-05-08 05:56 18.46393 100.47467 7970 ft 263 kts 223°
2026-05-08 05:56 18.45064 100.46125 7970 ft 265 kts 223°
2026-05-08 05:56 18.43729 100.44775 7983 ft 267 kts 223°
2026-05-08 05:56 18.42380 100.43415 7981 ft 269 kts 223°
2026-05-08 05:57 18.41022 100.42047 7973 ft 271 kts 223°
2026-05-08 05:57 18.39671 100.40684 7963 ft 272 kts 223°
2026-05-08 05:57 18.38454 100.39192 7955 ft 269 kts 242°
2026-05-08 05:57 18.37821 100.37330 7961 ft 271 kts 254°
2026-05-08 05:58 18.37342 100.35407 7957 ft 272 kts 256°
2026-05-08 05:58 18.36886 100.33495 7833 ft 268 kts 256°
2026-05-08 05:58 18.36416 100.31601 7497 ft 267 kts 254°
2026-05-08 05:58 18.35902 100.29724 7144 ft 265 kts 254°
2026-05-08 05:59 18.35730 100.27816 6794 ft 262 kts 273°
2026-05-08 05:59 18.35923 100.25911 6491 ft 262 kts 278°
2026-05-08 05:59 18.36173 100.24003 6155 ft 263 kts 278°
2026-05-08 05:59 18.36419 100.22095 5810 ft 264 kts 278°
2026-05-08 06:00 18.36361 100.20188 5431 ft 263 kts 253°
2026-05-08 06:00 18.35406 100.18602 5046 ft 262 kts 221°
2026-05-08 06:00 18.33793 100.17776 4707 ft 259 kts 188°
2026-05-08 06:00 18.32017 100.17799 4331 ft 253 kts 173°
2026-05-08 06:01 18.30261 100.17947 3972 ft 253 kts 175°
2026-05-08 06:01 18.28498 100.18009 3637 ft 254 kts 179°
2026-05-08 06:01 18.26731 100.17925 3254 ft 255 kts 184°
2026-05-08 06:01 18.25008 100.17744 2903 ft 238 kts 186°
2026-05-08 06:02 18.23413 100.17565 2662 ft 218 kts 185°
2026-05-08 06:02 18.21996 100.17410 2420 ft 199 kts 185°
2026-05-08 06:02 18.20665 100.17258 2189 ft 182 kts 186°
2026-05-08 06:02 18.19478 100.17119 2096 ft 162 kts 186°
2026-05-08 06:03 18.18428 100.17008 1960 ft 141 kts 185°
2026-05-08 06:03 18.17472 100.16904 1605 ft 137 kts 185°
2026-05-08 06:03 18.16520 100.16812 1247 ft 135 kts 186°
2026-05-08 06:03 18.15571 100.16712 952 ft 139 kts 187°
2026-05-08 06:04 18.14613 100.16613 724 ft 139 kts 186°
2026-05-08 06:04 18.13674 100.16517 551 ft 130 kts 187°
2026-05-08 06:04 18.13084 100.16454 545 ft 40 kts 186°
2026-05-08 06:04 18.12842 100.16431 545 ft 31 kts 186°
2026-05-08 06:05 18.12651 100.16411 548 ft 24 kts 186°
2026-05-08 06:05 18.12563 100.16384 551 ft 4 kts 117°
2026-05-08 06:05 18.12619 100.16413 549 ft 15 kts 356°
2026-05-08 06:05 18.12716 100.16418 547 ft 14 kts
2026-05-08 06:06 18.12814 100.16427 545 ft 14 kts
2026-05-08 06:06 18.12907 100.16438 545 ft 13 kts
2026-05-08 06:06 18.13020 100.16449 545 ft 27 kts
2026-05-08 06:06 18.13172 100.16431 544 ft 16 kts 292°
2026-05-08 06:07 18.13181 100.16324 542 ft 13 kts 251°
2026-05-08 06:07 18.13134 100.16294 542 ft 3 kts 259°
2026-05-08 06:07 18.13161 100.16283 542 ft 3 kts
2026-05-08 06:07 18.13166 100.16283 542 ft 0 kts